Whitehall, Wisconsin
Current Conditions -  °F | °C
As of 5:55 AM on Monday 22 Dec 2014 (Local Time) from KBCK Reporting Station
Haze Haze  
Wind Chill: 32°   Ceiling: 1100
Heat Index: 36°   Visibility: 5mi
Dew Point: 32°   Wind: 5mph
Humidity: 87%   Direction: 140°SE
Pressure: 29.8"   Gusts: NA
Location:  44.37°N, 91.32°W
Report Text: KBCK 221155Z AUTO 14004KT 5SM BR OVC011 02/00 A2980 RMK AO2 T00200000 10027 20020
Loading
Personal Weather Stations






























Interactive Weather Map New forecast layout! Learn more

10-Day Weather Forecast

Advertisements
Track Severe Weather on mobile